Time;durP1;ratioP1;P1;durP2;ratioP2;P2;SDS_P1;SDS_P2;PMS_P1;PMS_P2;Temp;Humidity;BMP_temperature;BMP_pressure;BME280_temperature;BME280_humidity;BME280_pressure;Samples;Min_cycle;Max_cycle;Signal;HPM_P1;HPM_P2
2022/06/02 00:01:40;;;;;;;1.60;1.50;;;10.70;99.90;;;;;;5055865;28;20021;-56
2022/06/02 00:04:08;;;;;;;2.25;1.75;;;10.70;99.90;;;;;;5054123;28;20025;-57
2022/06/02 00:06:54;;;;;;;1.42;1.30;;;10.60;99.90;;;;;;5054682;28;20166;-52
2022/06/02 00:09:41;;;;;;;2.15;1.90;;;10.60;99.90;;;;;;5054588;28;20115;-52
2022/06/02 00:12:24;;;;;;;2.00;1.80;;;10.60;99.90;;;;;;5055218;28;20028;-56
2022/06/02 00:15:05;;;;;;;5.25;1.40;;;10.50;99.90;;;;;;5054963;28;20029;-53
2022/06/02 00:17:43;;;;;;;2.35;1.90;;;10.60;99.90;;;;;;5055437;28;20032;-56
2022/06/02 00:20:15;;;;;;;2.13;1.77;;;10.60;99.90;;;;;;5055036;28;20413;-55
2022/06/02 00:22:58;;;;;;;4.32;1.40;;;10.50;99.90;;;;;;5054546;28;20171;-53
2022/06/02 00:25:52;;;;;;;3.78;1.90;;;10.50;99.90;;;;;;5054008;28;20025;-57
2022/06/02 00:28:43;;;;;;;1.63;1.50;;;10.40;99.90;;;;;;5054809;28;20029;-53
2022/06/02 00:31:26;;;;;;;1.80;1.67;;;10.40;99.90;;;;;;5054402;28;20029;-52
2022/06/02 00:34:02;;;;;;;2.00;1.75;;;10.30;99.90;;;;;;5053694;28;20048;-57
2022/06/02 00:36:48;;;;;;;3.10;2.00;;;10.30;99.90;;;;;;5054287;28;20017;-56
2022/06/02 00:39:17;;;;;;;3.47;1.80;;;10.30;99.90;;;;;;5054858;28;20051;-54
2022/06/02 00:42:13;;;;;;;5.10;3.10;;;10.20;99.90;;;;;;5053597;28;20032;-55
2022/06/02 00:44:54;;;;;;;2.20;1.85;;;10.10;99.90;;;;;;5054878;28;20025;-54
2022/06/02 00:47:47;;;;;;;1.80;1.70;;;10.10;99.90;;;;;;5053993;28;20057;-53
2022/06/02 00:50:20;;;;;;;2.78;1.70;;;9.90;99.90;;;;;;5054772;28;20025;-51
2022/06/02 00:53:21;;;;;;;2.28;1.58;;;9.90;99.90;;;;;;5053239;28;20053;-52
2022/06/02 01:00:05;;;;;;;2.78;1.70;;;9.90;99.90;;;;;;5054436;28;20064;-52
2022/06/02 01:02:54;;;;;;;3.45;2.45;;;9.70;99.90;;;;;;5035331;28;20029;-51
2022/06/02 01:05:37;;;;;;;3.17;1.92;;;9.70;99.90;;;;;;5052112;28;20021;-54
2022/06/02 01:08:25;;;;;;;2.03;1.73;;;9.60;99.90;;;;;;5047433;28;20037;-54
2022/06/02 01:11:28;;;;;;;2.40;2.03;;;9.50;99.90;;;;;;5054649;28;20104;-53
2022/06/02 01:13:56;;;;;;;1.63;1.52;;;9.50;99.90;;;;;;5052761;28;20025;-55
2022/06/02 01:16:36;;;;;;;4.20;1.60;;;9.30;99.90;;;;;;5053945;28;20037;-51
2022/06/02 01:19:21;;;;;;;2.17;1.92;;;9.30;99.90;;;;;;5053987;28;20056;-54
2022/06/02 01:22:33;;;;;;;2.35;2.15;;;9.30;99.90;;;;;;5054198;28;20021;-54
2022/06/02 01:25:17;;;;;;;2.13;1.77;;;9.30;99.90;;;;;;5034846;28;20484;-54
2022/06/02 01:28:10;;;;;;;3.92;1.60;;;9.30;99.90;;;;;;5051954;28;20037;-53
2022/06/02 01:30:39;;;;;;;2.17;1.90;;;9.30;99.90;;;;;;5049261;28;20029;-56
2022/06/02 01:33:40;;;;;;;5.95;1.90;;;9.20;99.90;;;;;;5053612;28;20028;-55
2022/06/02 01:36:14;;;;;;;2.03;1.50;;;9.20;99.90;;;;;;5051041;28;20029;-53
2022/06/02 01:39:12;;;;;;;1.90;1.63;;;9.20;99.90;;;;;;5052365;28;20033;-54
2022/06/02 01:41:41;;;;;;;2.15;1.95;;;9.10;99.90;;;;;;5053212;28;20041;-54
2022/06/02 01:44:33;;;;;;;1.98;1.70;;;9.10;99.90;;;;;;5053961;28;20081;-58
2022/06/02 01:47:12;;;;;;;5.32;2.13;;;9.10;99.90;;;;;;5052405;28;20033;-56
2022/06/02 01:49:55;;;;;;;2.22;1.77;;;9.00;99.90;;;;;;5053341;28;20127;-53
2022/06/02 01:52:24;;;;;;;4.22;2.22;;;9.00;99.90;;;;;;5053384;28;20024;-55
2022/06/02 01:54:52;;;;;;;2.35;1.80;;;8.90;99.90;;;;;;5052861;28;20032;-51
2022/06/02 01:57:29;;;;;;;2.75;1.77;;;8.90;99.90;;;;;;5053055;28;20021;-53
2022/06/02 02:00:04;;;;;;;3.10;1.70;;;8.90;99.90;;;;;;5053088;28;20029;-56
2022/06/02 02:03:11;;;;;;;3.50;2.10;;;8.90;99.90;;;;;;5052121;28;20117;-56
2022/06/02 02:05:51;;;;;;;4.30;2.13;;;8.90;99.90;;;;;;5052688;28;20057;-60
2022/06/02 02:08:19;;;;;;;2.65;2.00;;;8.80;99.90;;;;;;5053307;28;20033;-53
2022/06/02 02:11:22;;;;;;;2.03;1.85;;;8.80;99.90;;;;;;5053063;28;20124;-57
2022/06/02 02:14:09;;;;;;;2.00;1.80;;;8.80;99.90;;;;;;5052973;28;20032;-54
2022/06/02 02:16:53;;;;;;;2.85;1.95;;;8.70;99.90;;;;;;5053106;28;20032;-58
2022/06/02 02:19:53;;;;;;;2.42;2.00;;;8.80;99.90;;;;;;5053038;28;20029;-56
2022/06/02 02:22:46;;;;;;;7.38;2.17;;;8.70;99.90;;;;;;5051043;28;20036;-58
2022/06/02 02:25:26;;;;;;;4.95;2.15;;;8.70;99.90;;;;;;5051536;28;20162;-55
2022/06/02 02:28:03;;;;;;;3.35;2.20;;;8.60;99.90;;;;;;5051582;28;20021;-56
2022/06/02 02:30:43;;;;;;;3.88;2.15;;;8.60;99.90;;;;;;5053131;28;20021;-55
2022/06/02 02:33:24;;;;;;;3.40;2.00;;;8.60;99.90;;;;;;5052906;28;20071;-58
2022/06/02 02:36:24;;;;;;;2.78;1.92;;;8.60;99.90;;;;;;5051788;28;20025;-55
2022/06/02 02:39:13;;;;;;;2.00;1.80;;;8.60;99.90;;;;;;5051570;28;20021;-57
2022/06/02 02:41:59;;;;;;;2.33;1.58;;;8.60;99.90;;;;;;5053032;28;20506;-57
2022/06/02 02:44:47;;;;;;;2.13;1.90;;;8.60;99.90;;;;;;5052820;28;20025;-56
2022/06/02 02:47:23;;;;;;;2.33;2.00;;;8.50;99.90;;;;;;5053047;28;20108;-58
2022/06/02 02:49:54;;;;;;;2.78;2.58;;;8.50;99.90;;;;;;5056514;28;20025;-57
2022/06/02 02:52:41;;;;;;;2.45;2.25;;;8.50;99.90;;;;;;5056870;28;20013;-55
2022/06/02 02:55:15;;;;;;;2.65;2.20;;;8.40;99.90;;;;;;5056703;28;20028;-53
2022/06/02 02:57:57;;;;;;;3.67;1.92;;;8.30;99.90;;;;;;5056950;28;20464;-53
2022/06/02 03:00:33;;;;;;;2.80;1.90;;;8.30;99.90;;;;;;5055402;28;20017;-56
2022/06/02 03:03:26;;;;;;;3.08;2.30;;;8.30;99.90;;;;;;5055302;28;20040;-56
2022/06/02 03:06:31;;;;;;;4.22;2.10;;;8.30;99.90;;;;;;5056475;28;20028;-58
2022/06/02 03:09:05;;;;;;;6.25;2.83;;;8.30;99.90;;;;;;5054304;28;20028;-58
2022/06/02 03:11:52;;;;;;;3.72;2.42;;;8.30;99.90;;;;;;5056850;28;20091;-60
2022/06/02 03:14:46;;;;;;;4.22;2.20;;;8.30;99.90;;;;;;5056148;28;20021;-55
2022/06/02 03:17:19;;;;;;;3.05;2.38;;;8.20;99.90;;;;;;5054989;28;20024;-59
2022/06/02 03:20:05;;;;;;;5.05;1.83;;;8.20;99.90;;;;;;5055513;28;20041;-60
2022/06/02 03:22:46;;;;;;;2.95;2.10;;;8.20;99.90;;;;;;5056313;28;20095;-54
2022/06/02 03:25:38;;;;;;;2.83;2.20;;;8.10;99.90;;;;;;5054817;28;20044;-58
2022/06/02 03:28:16;;;;;;;4.15;2.25;;;8.00;99.90;;;;;;5056256;28;20025;-60
2022/06/02 03:30:48;;;;;;;2.90;2.70;;;8.00;99.90;;;;;;5056080;28;20071;-58
2022/06/02 03:33:28;;;;;;;2.92;2.13;;;8.10;99.90;;;;;;5055911;28;20105;-54
2022/06/02 03:36:08;;;;;;;3.80;2.47;;;8.10;99.90;;;;;;5056042;28;20028;-58
2022/06/02 03:38:52;;;;;;;6.90;2.13;;;8.10;99.90;;;;;;5054789;28;20399;-57
2022/06/02 03:41:29;;;;;;;6.35;2.80;;;8.10;99.90;;;;;;5055823;28;20021;-58
2022/06/02 03:44:13;;;;;;;3.92;2.28;;;8.20;99.90;;;;;;5054576;28;20033;-56
2022/06/02 03:46:41;;;;;;;2.70;2.50;;;8.20;99.90;;;;;;5055169;28;20033;-57
2022/06/02 03:49:26;;;;;;;5.45;2.53;;;8.20;99.90;;;;;;5055907;28;20083;-57
2022/06/02 03:51:51;;;;;;;2.80;2.30;;;8.20;99.90;;;;;;5056258;28;20017;-58
2022/06/02 03:54:17;;;;;;;3.08;2.78;;;8.30;99.90;;;;;;5055474;28;20023;-58
2022/06/02 03:57:00;;;;;;;3.03;2.42;;;8.40;99.90;;;;;;5055579;28;20104;-57
2022/06/02 03:59:47;;;;;;;4.95;2.80;;;8.50;99.90;;;;;;5055636;28;20096;-59
2022/06/02 04:02:43;;;;;;;3.40;2.40;;;8.70;99.90;;;;;;5054689;28;20021;-61
2022/06/02 04:05:39;;;;;;;3.33;2.60;;;8.90;99.90;;;;;;5055381;28;20021;-58
2022/06/02 04:08:25;;;;;;;3.15;2.22;;;9.10;99.90;;;;;;5054022;28;20033;-59
2022/06/02 04:11:19;;;;;;;2.35;2.15;;;9.40;99.90;;;;;;5054740;28;20021;-61
2022/06/02 04:13:59;;;;;;;6.88;2.03;;;9.70;99.90;;;;;;5053971;28;20032;-60
2022/06/02 04:16:57;;;;;;;6.07;2.20;;;9.90;99.90;;;;;;5055096;28;20092;-59
2022/06/02 04:23:02;;;;;;;2.42;1.90;;;10.60;99.90;;;;;;5055163;28;20079;-58
2022/06/02 04:25:48;;;;;;;2.95;2.17;;;10.90;99.90;;;;;;5054352;28;20028;-58
2022/06/02 04:28:44;;;;;;;3.45;2.20;;;11.20;99.90;;;;;;5054951;28;20036;-58
2022/06/02 04:31:25;;;;;;;3.00;2.35;;;11.50;99.90;;;;;;5055065;28;20454;-57
2022/06/02 04:33:55;;;;;;;4.05;2.67;;;11.90;99.90;;;;;;5054354;28;20024;-55
2022/06/02 04:36:35;;;;;;;2.50;1.95;;;12.20;99.90;;;;;;5055250;28;20025;-53
2022/06/02 04:39:22;;;;;;;2.65;2.30;;;12.70;99.90;;;;;;5055221;28;20484;-57
2022/06/02 04:42:12;;;;;;;5.70;2.15;;;13.00;99.90;;;;;;5053998;28;20029;-56
2022/06/02 04:44:47;;;;;;;5.55;2.40;;;13.30;99.90;;;;;;5054578;28;20060;-57
2022/06/02 04:47:40;;;;;;;2.95;1.80;;;13.60;99.90;;;;;;5053875;28;20031;-58
2022/06/02 04:50:41;;;;;;;3.53;2.42;;;13.80;99.90;;;;;;5055294;28;20017;-53
2022/06/02 04:53:34;;;;;;;3.13;2.30;;;14.10;99.90;;;;;;5049730;28;20037;-57
2022/06/02 04:56:35;;;;;;;2.42;2.05;;;14.40;99.90;;;;;;5055060;28;20025;-54
2022/06/02 04:59:39;;;;;;;3.13;1.80;;;14.80;99.90;;;;;;5054765;28;20075;-52
2022/06/02 05:02:26;;;;;;;6.25;2.25;;;15.30;99.90;;;;;;5053056;28;20052;-58
2022/06/02 05:05:12;;;;;;;2.38;1.98;;;15.50;99.90;;;;;;5035922;28;20056;-55
2022/06/02 05:08:13;;;;;;;2.50;2.17;;;15.90;99.90;;;;;;5048227;28;20131;-52
2022/06/02 05:10:46;;;;;;;3.38;2.17;;;16.10;99.90;;;;;;5052811;28;20033;-54
2022/06/02 05:13:29;;;;;;;4.65;2.50;;;16.50;99.90;;;;;;5053421;28;20021;-59
2022/06/02 05:16:22;;;;;;;4.50;1.90;;;16.60;99.90;;;;;;5054092;28;20029;-57
2022/06/02 05:19:07;;;;;;;4.35;2.13;;;17.00;99.90;;;;;;5053867;28;20025;-57
2022/06/02 05:22:11;;;;;;;3.95;2.00;;;17.40;99.90;;;;;;5053246;28;20055;-57
2022/06/02 05:24:57;;;;;;;2.28;1.70;;;17.70;99.90;;;;;;5052243;28;20027;-51
2022/06/02 05:27:52;;;;;;;2.92;2.30;;;18.20;99.90;;;;;;5054739;28;20087;-53
2022/06/02 05:30:23;;;;;;;1.88;1.55;;;18.50;99.90;;;;;;5045566;28;20032;-51
2022/06/02 05:32:51;;;;;;;;;;;18.90;99.90;;;;;;5054674;28;20036;-55
2022/06/02 05:35:20;;;;;;;3.90;2.13;;;19.40;99.90;;;;;;5054348;28;19905;-52
2022/06/02 05:38:11;;;;;;;6.40;1.95;;;19.70;99.90;;;;;;5054353;28;20040;-56
2022/06/02 05:40:40;;;;;;;4.47;2.55;;;20.10;99.90;;;;;;5054199;28;20021;-51
2022/06/02 05:43:33;;;;;;;5.13;2.53;;;20.20;99.90;;;;;;5054116;28;20025;-54
2022/06/02 05:46:23;;;;;;;3.88;2.47;;;20.40;99.90;;;;;;5052619;28;20017;-55
2022/06/02 05:48:49;;;;;;;2.30;1.85;;;21.00;99.90;;;;;;5052752;28;20115;-57
2022/06/02 05:51:38;;;;;;;3.63;2.00;;;21.40;99.90;;;;;;5054168;28;20071;-56
2022/06/02 05:54:10;;;;;;;2.28;2.03;;;21.30;99.90;;;;;;5053891;28;20055;-57
2022/06/02 05:56:54;;;;;;;2.20;1.98;;;21.70;99.90;;;;;;5053747;28;20025;-55
2022/06/02 05:59:44;;;;;;;4.75;1.70;;;21.70;99.90;;;;;;5053872;28;20029;-57
2022/06/02 06:02:33;;;;;;;2.88;2.28;;;22.00;99.90;;;;;;5054062;28;20360;-53
2022/06/02 06:05:03;;;;;;;3.15;2.53;;;22.80;99.90;;;;;;5053163;28;20025;-57
2022/06/02 06:07:34;;;;;;;2.17;1.98;;;22.90;98.80;;;;;;5053890;28;20033;-57
2022/06/02 06:10:25;;;;;;;3.55;2.60;;;23.50;98.20;;;;;;5053131;28;20032;-55
2022/06/02 06:13:12;;;;;;;3.22;2.15;;;23.20;96.20;;;;;;5053891;28;20017;-56
2022/06/02 06:15:55;;;;;;;5.38;2.80;;;23.50;95.90;;;;;;5052174;28;20029;-57
2022/06/02 06:18:43;;;;;;;2.38;2.17;;;24.00;95.60;;;;;;5053820;28;20048;-57
2022/06/02 06:21:59;;;;;;;4.75;2.67;;;25.10;94.50;;;;;;5053425;28;20091;-58
2022/06/02 06:24:39;;;;;;;3.55;2.58;;;25.40;91.10;;;;;;5043291;28;20033;-58
2022/06/02 06:27:17;;;;;;;3.08;2.00;;;25.10;92.00;;;;;;5052427;28;20020;-57
2022/06/02 06:30:01;;;;;;;3.03;2.70;;;25.50;93.50;;;;;;5051938;28;20404;-58
2022/06/02 06:32:36;;;;;;;2.70;1.77;;;26.20;90.10;;;;;;5052005;28;20159;-59
2022/06/02 06:35:35;;;;;;;2.72;2.28;;;26.90;90.10;;;;;;5053347;28;20032;-58
2022/06/02 06:38:19;;;;;;;7.15;3.20;;;27.60;87.20;;;;;;5053293;28;20052;-58
2022/06/02 06:41:05;;;;;;;4.35;3.42;;;27.80;81.10;;;;;;5052959;28;20027;-56
2022/06/02 06:43:50;;;;;;;5.93;4.80;;;28.20;79.50;;;;;;5051935;28;20021;-57
2022/06/02 06:46:37;;;;;;;6.43;3.92;;;27.60;78.40;;;;;;5052164;28;20017;-56
2022/06/02 06:49:38;;;;;;;5.22;2.88;;;27.50;78.30;;;;;;5053091;28;20025;-59
2022/06/02 06:52:11;;;;;;;;;;;28.20;77.00;;;;;;5052844;28;20052;-56
2022/06/02 06:55:14;;;;;;;6.63;3.72;;;28.70;77.50;;;;;;5052987;28;19905;-55
2022/06/02 06:57:51;;;;;;;4.63;2.60;;;29.20;73.60;;;;;;5053060;28;20029;-57
2022/06/02 07:00:46;;;;;;;2.88;2.15;;;30.00;74.00;;;;;;5051817;28;20033;-59
2022/06/02 07:03:31;;;;;;;4.05;2.70;;;30.80;70.40;;;;;;5051883;28;20036;-59
2022/06/02 07:06:05;;;;;;;4.72;3.45;;;31.60;67.20;;;;;;5051798;28;20025;-58
2022/06/02 07:08:33;;;;;;;4.53;2.97;;;31.80;64.90;;;;;;5053007;28;20033;-58
2022/06/02 07:12:50;;;;;;;8.00;4.03;;;31.30;65.60;;;;;;5051610;28;20021;-58
2022/06/02 07:14:22;;;;;;;4.25;3.85;;;30.80;64.40;;;;;;5052827;28;20027;-58
2022/06/02 07:16:56;;;;;;;4.45;3.13;;;29.30;66.20;;;;;;5051678;28;20063;-59
2022/06/02 07:19:24;;;;;;;4.78;3.28;;;29.10;68.70;;;;;;5053318;28;20025;-58
2022/06/02 07:22:03;;;;;;;2.78;2.58;;;29.10;69.40;;;;;;5052443;28;20034;-58
2022/06/02 07:24:55;;;;;;;5.95;3.70;;;30.00;67.20;;;;;;5052821;28;20074;-58
2022/06/02 07:27:33;;;;;;;4.00;3.60;;;31.50;66.90;;;;;;5052561;28;20163;-61
2022/06/02 07:30:18;;;;;;;4.75;3.03;;;32.60;62.00;;;;;;5052679;28;20108;-62
2022/06/02 07:33:18;;;;;;;3.95;2.53;;;33.20;60.40;;;;;;5051803;28;20075;-64
2022/06/02 07:36:22;;;;;;;3.65;2.65;;;33.50;60.00;;;;;;5055755;28;20025;-64
2022/06/02 07:38:59;;;;;;;5.38;3.15;;;34.10;58.40;;;;;;5051689;28;20096;-63
2022/06/02 07:42:04;;;;;;;9.57;3.47;;;33.00;58.90;;;;;;5056134;28;20025;-64
2022/06/02 07:44:53;;;;;;;6.03;4.00;;;32.30;58.10;;;;;;5055823;28;20036;-63
2022/06/02 07:47:47;;;;;;;6.65;3.80;;;31.50;57.30;;;;;;5055407;28;20021;-64
2022/06/02 07:50:33;;;;;;;5.47;3.60;;;31.30;61.00;;;;;;5056248;28;20028;-63
2022/06/02 07:53:17;;;;;;;6.25;2.95;;;33.40;57.20;;;;;;5055476;28;20116;-63
2022/06/02 07:56:01;;;;;;;4.10;3.70;;;34.60;56.00;;;;;;5055343;28;20056;-64
2022/06/02 07:58:45;;;;;;;5.63;2.90;;;35.40;53.20;;;;;;5055635;28;20032;-61
2022/06/02 08:01:16;;;;;;;4.05;3.65;;;35.60;52.90;;;;;;5054852;28;20021;-63
2022/06/02 08:03:47;;;;;;;6.38;3.97;;;34.80;51.50;;;;;;5055977;28;20032;-61
2022/06/02 08:06:32;;;;;;;5.32;4.00;;;34.60;51.10;;;;;;5054942;28;20051;-64
2022/06/02 08:09:19;;;;;;;6.70;3.90;;;34.50;53.60;;;;;;5055704;28;20040;-64
2022/06/02 08:12:03;;;;;;;3.33;2.55;;;35.40;51.70;;;;;;5055417;28;20108;-64
2022/06/02 08:14:54;;;;;;;4.03;3.63;;;35.10;52.60;;;;;;5055614;28;20028;-64
2022/06/02 08:17:28;;;;;;;7.80;5.20;;;35.90;50.80;;;;;;5054831;28;20025;-64
2022/06/02 08:20:18;;;;;;;9.55;3.33;;;36.60;49.20;;;;;;5055700;28;20032;-64
2022/06/02 08:23:11;;;;;;;5.53;2.38;;;36.90;50.00;;;;;;5054999;28;20063;-64
2022/06/02 08:26:19;;;;;;;3.30;1.95;;;37.70;48.60;;;;;;5055540;28;20116;-64
2022/06/02 08:29:16;;;;;;;3.60;3.30;;;37.80;47.90;;;;;;5054129;28;20112;-64
2022/06/02 08:32:10;;;;;;;4.47;3.20;;;36.50;46.60;;;;;;5055452;28;20021;-63
2022/06/02 08:34:36;;;;;;;3.80;3.22;;;35.60;48.40;;;;;;5054165;28;20053;-63
2022/06/02 08:37:10;;;;;;;3.30;3.05;;;34.90;48.60;;;;;;5054973;28;20361;-64
2022/06/02 08:39:42;;;;;;;8.45;2.10;;;34.30;47.30;;;;;;5055316;28;20037;-64
2022/06/02 08:42:44;;;;;;;2.72;2.03;;;34.90;49.70;;;;;;5054028;28;20032;-64
2022/06/02 08:45:52;;;;;;;5.50;2.58;;;36.50;47.70;;;;;;5054477;28;20071;-63
2022/06/02 08:48:54;;;;;;;5.63;2.15;;;37.50;46.00;;;;;;5055216;28;20017;-64
2022/06/02 08:52:01;;;;;;;2.95;2.65;;;38.00;45.90;;;;;;5053873;28;20107;-63
2022/06/02 08:55:04;;;;;;;3.75;2.30;;;37.60;45.10;;;;;;5055114;28;20021;-64
2022/06/02 08:57:42;;;;;;;2.15;2.05;;;36.40;44.70;;;;;;5054037;28;20074;-64
2022/06/02 09:00:07;;;;;;;2.97;1.85;;;34.50;47.00;;;;;;5055739;28;20044;-65
2022/06/02 09:03:01;;;;;;;3.08;2.63;;;34.10;46.60;;;;;;5053961;28;20025;-64
2022/06/02 09:05:49;;;;;;;3.05;2.00;;;33.90;46.60;;;;;;5054300;28;20067;-63
2022/06/02 09:08:54;;;;;;;3.40;2.10;;;32.60;46.80;;;;;;5053589;28;20037;-64
2022/06/02 09:11:38;;;;;;;3.53;2.10;;;32.50;48.60;;;;;;5054672;28;20019;-64
2022/06/02 09:14:32;;;;;;;1.75;1.50;;;33.80;46.10;;;;;;5054629;28;20476;-64
2022/06/02 09:17:22;;;;;;;4.13;1.40;;;35.00;46.80;;;;;;5053622;28;20045;-64
2022/06/02 09:20:13;;;;;;;2.83;1.40;;;36.60;45.80;;;;;;5054686;28;20159;-63
2022/06/02 09:22:39;;;;;;;1.85;1.75;;;37.70;47.30;;;;;;5053853;28;20269;-64
2022/06/02 09:25:17;;;;;;;2.45;1.70;;;38.60;46.00;;;;;;5054362;28;20477;-62
2022/06/02 09:28:14;;;;;;;3.85;2.08;;;38.30;43.10;;;;;;5053439;28;20021;-64
2022/06/02 09:31:07;;;;;;;5.45;1.17;;;37.70;43.50;;;;;;5054394;28;20040;-64
2022/06/02 09:33:54;;;;;;;2.83;1.70;;;38.20;47.10;;;;;;5053998;28;20468;-65
2022/06/02 09:36:51;;;;;;;2.40;1.75;;;38.20;41.90;;;;;;5052945;28;20545;-64
2022/06/02 09:39:28;;;;;;;5.90;1.40;;;38.10;42.90;;;;;;5052984;28;20021;-64
2022/06/02 09:42:20;;;;;;;1.48;1.25;;;38.90;43.10;;;;;;5054320;28;20092;-62
2022/06/02 09:45:06;;;;;;;2.15;1.75;;;39.40;42.20;;;;;;5053384;28;20060;-62
2022/06/02 09:48:14;;;;;;;1.67;1.58;;;39.80;42.00;;;;;;5053916;28;20025;-63
2022/06/02 09:50:43;;;;;;;1.75;1.58;;;40.00;40.60;;;;;;5053638;28;20459;-61
2022/06/02 09:53:28;;;;;;;3.33;1.50;;;39.70;42.60;;;;;;5054197;28;20032;-64
2022/06/02 09:56:21;;;;;;;4.55;1.75;;;40.00;43.30;;;;;;5054157;28;20024;-63
2022/06/02 09:58:53;;;;;;;4.03;1.20;;;39.40;41.60;;;;;;5053455;28;20108;-63
2022/06/02 10:01:34;;;;;;;4.97;1.55;;;38.50;42.50;;;;;;5053850;28;20016;-63
2022/06/02 10:04:21;;;;;;;3.10;1.25;;;38.70;42.10;;;;;;5053740;28;20018;-63
2022/06/02 10:07:43;;;;;;;1.77;1.27;;;38.80;45.00;;;;;;5052314;28;20033;-64
2022/06/02 10:10:39;;;;;;;1.48;1.15;;;39.70;40.20;;;;;;5034911;28;20032;-63
2022/06/02 10:13:05;;;;;;;2.47;1.30;;;38.40;44.10;;;;;;5051832;28;20561;-63
2022/06/02 10:15:42;;;;;;;2.33;1.30;;;38.10;41.80;;;;;;5048041;28;20025;-63
2022/06/02 10:18:35;;;;;;;1.40;1.30;;;38.20;40.70;;;;;;5052808;28;20021;-63
2022/06/02 10:21:15;;;;;;;3.58;1.40;;;38.10;41.70;;;;;;5053432;28;20517;-63
2022/06/02 10:23:49;;;;;;;3.70;1.30;;;37.70;41.90;;;;;;5053730;28;20032;-63
2022/06/02 10:26:49;;;;;;;1.98;1.10;;;37.20;42.00;;;;;;5052349;28;20032;-64
2022/06/02 10:33:28;;;;;;;1.40;1.10;;;36.30;41.80;;;;;;5053536;28;20024;-62
2022/06/02 10:36:18;;;;;;;3.60;1.30;;;35.50;43.60;;;;;;5053597;28;20028;-64
2022/06/02 10:39:12;;;;;;;1.98;1.30;;;33.90;43.70;;;;;;5053799;28;20035;-64
2022/06/02 10:41:58;;;;;;;2.53;1.20;;;32.90;46.90;;;;;;5053336;28;20029;-61
2022/06/02 10:45:20;;;;;;;2.17;1.20;;;31.80;47.30;;;;;;5053310;28;20033;-63
2022/06/02 10:48:12;;;;;;;1.67;1.20;;;31.20;46.60;;;;;;5034743;28;20040;-61
2022/06/02 10:50:46;;;;;;;1.73;1.60;;;29.50;47.50;;;;;;5052441;28;20028;-62
2022/06/02 10:53:27;;;;;;;2.38;1.13;;;28.80;48.80;;;;;;5051937;28;20021;-61
2022/06/02 10:56:23;;;;;;;2.03;1.23;;;27.80;49.10;;;;;;5053395;28;20021;-64
2022/06/02 10:59:22;;;;;;;3.42;1.13;;;27.10;51.40;;;;;;5051786;28;20025;-64
2022/06/02 11:02:29;;;;;;;1.80;1.02;;;27.50;52.70;;;;;;5051781;28;20028;-61
2022/06/02 11:05:23;;;;;;;2.55;1.45;;;27.80;52.30;;;;;;5051385;28;20191;-64
2022/06/02 11:08:27;;;;;;;1.50;1.20;;;27.90;52.70;;;;;;5051862;28;20155;-63
2022/06/02 11:11:12;;;;;;;1.42;0.93;;;27.80;52.90;;;;;;5046275;28;20044;-62
2022/06/02 11:13:46;;;;;;;0.88;0.85;;;27.70;52.70;;;;;;5036748;28;20064;-61
2022/06/02 11:16:15;;;;;;;1.15;0.80;;;26.00;50.40;;;;;;5035782;28;20052;-57
2022/06/02 11:19:20;;;;;;;1.40;0.80;;;24.80;53.10;;;;;;5035736;28;20030;-59
2022/06/02 11:22:41;;;;;;;1.23;0.85;;;23.60;55.20;;;;;;5037019;28;20028;-60
2022/06/02 11:25:15;;;;;;;1.23;1.13;;;23.10;56.90;;;;;;5035436;28;20029;-59
2022/06/02 11:28:15;;;;;;;2.55;1.00;;;22.40;57.60;;;;;;5036596;28;20070;-54
2022/06/02 11:30:47;;;;;;;1.50;1.02;;;22.00;59.00;;;;;;5035565;28;20476;-60
2022/06/02 11:33:50;;;;;;;1.58;1.27;;;21.70;59.40;;;;;;5035243;28;20438;-60
2022/06/02 11:36:40;;;;;;;2.00;1.30;;;21.80;58.40;;;;;;5036464;28;20530;-61
2022/06/02 11:39:12;;;;;;;5.45;1.00;;;21.50;59.60;;;;;;5035781;28;20029;-60
2022/06/02 11:42:36;;;;;;;1.02;0.70;;;22.00;61.20;;;;;;5036675;28;20075;-63
2022/06/02 11:45:26;;;;;;;3.13;0.95;;;23.00;60.20;;;;;;5033882;28;20045;-62
2022/06/02 11:48:17;;;;;;;2.55;0.70;;;23.60;59.90;;;;;;5036502;28;20032;-63
2022/06/02 11:51:02;;;;;;;4.75;0.82;;;23.40;57.20;;;;;;5034626;28;20033;-63
2022/06/02 11:53:52;;;;;;;1.40;0.93;;;23.50;54.60;;;;;;5034913;28;20488;-63
2022/06/02 11:56:29;;;;;;;5.68;0.80;;;22.80;57.60;;;;;;5034816;28;20051;-64
2022/06/02 11:59:26;;;;;;;2.55;1.05;;;22.20;57.30;;;;;;5036256;28;20021;-63
2022/06/02 12:02:25;;;;;;;4.13;0.70;;;22.70;59.10;;;;;;5035715;28;20026;-61
2022/06/02 12:05:00;;;;;;;2.13;0.70;;;22.90;59.20;;;;;;5035958;28;20018;-59
2022/06/02 12:07:41;;;;;;;0.82;0.70;;;23.20;57.20;;;;;;5034829;28;20036;-61
2022/06/02 12:13:41;;;;;;;3.33;0.85;;;23.80;57.90;;;;;;5036141;28;20025;-60
2022/06/02 12:16:40;;;;;;;2.47;1.00;;;24.00;56.20;;;;;;5034634;28;20443;-60
2022/06/02 12:19:25;;;;;;;3.58;1.10;;;23.70;56.90;;;;;;5035134;28;20088;-57
2022/06/02 12:22:00;;;;;;;1.55;0.90;;;23.00;57.90;;;;;;5034826;28;20018;-56
2022/06/02 12:24:58;;;;;;;3.38;0.90;;;22.40;59.20;;;;;;5035684;28;20518;-58
2022/06/02 12:27:52;;;;;;;3.33;0.70;;;22.10;58.70;;;;;;5035150;28;20048;-57
2022/06/02 12:30:48;;;;;;;0.82;0.82;;;22.50;60.40;;;;;;5035409;28;20026;-57
2022/06/02 12:33:35;;;;;;;1.70;0.90;;;22.60;58.80;;;;;;5035878;28;20018;-59
2022/06/02 12:36:22;;;;;;;4.03;0.77;;;22.10;59.10;;;;;;5035405;28;20025;-56
2022/06/02 12:39:28;;;;;;;0.93;0.70;;;22.40;60.10;;;;;;5035759;28;20029;-61
2022/06/02 12:42:28;;;;;;;1.63;0.80;;;22.90;62.70;;;;;;5036027;28;20032;-59
2022/06/02 12:45:24;;;;;;;1.95;0.80;;;23.10;59.20;;;;;;5035430;28;20445;-59
2022/06/02 12:48:06;;;;;;;2.38;1.00;;;23.20;59.40;;;;;;5035301;28;20377;-56
2022/06/02 12:50:31;;;;;;;2.75;0.73;;;23.40;58.30;;;;;;5034540;28;20029;-57
2022/06/02 12:57:15;;;;;;;2.90;0.80;;;23.40;59.40;;;;;;5035304;28;20024;-62
2022/06/02 13:00:13;;;;;;;;;;;23.60;58.60;;;;;;5034627;28;20022;-61
2022/06/02 13:03:10;;;;;;;1.63;0.70;;;23.80;59.50;;;;;;5033634;28;19908;-59
2022/06/02 13:06:00;;;;;;;1.52;0.85;;;23.70;57.50;;;;;;5033638;28;20097;-61
2022/06/02 13:08:47;;;;;;;1.20;0.55;;;23.80;58.30;;;;;;5033480;28;20037;-64
2022/06/02 13:11:22;;;;;;;2.05;0.75;;;23.80;59.70;;;;;;5033668;28;20022;-63
2022/06/02 13:14:16;;;;;;;3.75;0.93;;;23.80;59.80;;;;;;5033596;28;20030;-63
2022/06/02 13:17:34;;;;;;;1.25;0.80;;;24.00;58.80;;;;;;5034821;28;20026;-63
2022/06/02 13:20:28;;;;;;;2.25;1.00;;;24.10;59.40;;;;;;5032846;28;20046;-63
2022/06/02 13:23:05;;;;;;;0.82;0.80;;;24.30;58.40;;;;;;5033371;28;20052;-62
2022/06/02 13:26:01;;;;;;;1.05;0.80;;;23.50;57.70;;;;;;5034531;28;20017;-62
2022/06/02 13:28:52;;;;;;;0.90;0.90;;;22.90;58.60;;;;;;5034786;28;20030;-62
2022/06/02 13:31:55;;;;;;;1.05;0.90;;;22.80;59.30;;;;;;5033163;28;20025;-62
2022/06/02 13:35:02;;;;;;;1.13;0.82;;;22.60;58.90;;;;;;5034368;28;20075;-63
2022/06/02 13:38:01;;;;;;;1.02;0.90;;;22.70;59.20;;;;;;5033334;28;20060;-62
2022/06/02 13:40:38;;;;;;;4.05;0.70;;;22.80;58.80;;;;;;5033895;28;20052;-61
2022/06/02 13:43:04;;;;;;;2.10;0.75;;;22.90;59.00;;;;;;5033172;28;20025;-55
2022/06/02 13:45:59;;;;;;;1.05;0.98;;;23.00;59.30;;;;;;5032904;28;20404;-53
2022/06/02 13:48:43;;;;;;;1.02;0.75;;;22.50;59.30;;;;;;5034431;28;20026;-52
2022/06/02 13:51:37;;;;;;;1.55;0.80;;;22.10;60.30;;;;;;5032840;28;20057;-53
2022/06/02 13:57:42;;;;;;;;;;;21.90;60.40;;;;;;5034678;28;20037;-55
2022/06/02 14:00:42;;;;;;;0.90;0.60;;;22.20;62.00;;;;;;5032674;28;20249;-51
2022/06/02 14:03:19;;;;;;;1.75;0.95;;;22.30;62.80;;;;;;5033852;28;20045;-52
2022/06/02 14:06:23;;;;;;;1.35;0.80;;;22.30;61.70;;;;;;5032961;28;20549;-54
2022/06/02 14:09:01;;;;;;;0.80;0.70;;;22.00;62.70;;;;;;5033337;28;20037;-58
2022/06/02 14:12:11;;;;;;;6.18;0.80;;;22.40;62.30;;;;;;5033970;28;20041;-56
2022/06/02 14:14:49;;;;;;;1.90;0.90;;;22.70;61.40;;;;;;5032341;28;20017;-59
2022/06/02 14:17:52;;;;;;;2.30;0.95;;;22.90;61.90;;;;;;5033680;28;20017;-58
2022/06/02 14:20:21;;;;;;;1.10;0.90;;;22.80;63.30;;;;;;5032837;28;20522;-59
2022/06/02 14:23:09;;;;;;;1.00;0.80;;;22.20;62.50;;;;;;5032286;28;20040;-57
2022/06/02 14:26:02;;;;;;;1.10;1.00;;;21.80;63.20;;;;;;5033418;28;20392;-60
2022/06/02 14:28:50;;;;;;;1.75;0.88;;;21.80;63.20;;;;;;5032947;28;20025;-59
2022/06/02 14:31:25;;;;;;;2.25;0.82;;;21.50;62.10;;;;;;5032195;28;20052;-59
2022/06/02 14:34:08;;;;;;;1.88;0.80;;;21.30;63.00;;;;;;5033409;28;20029;-60
2022/06/02 14:36:58;;;;;;;0.90;0.75;;;21.30;64.60;;;;;;5033413;28;20028;-60
2022/06/02 14:39:59;;;;;;;1.27;0.83;;;21.60;63.90;;;;;;5033364;28;20021;-59
2022/06/02 14:43:03;;;;;;;3.45;0.90;;;21.80;64.10;;;;;;5033125;28;20029;-59
2022/06/02 14:45:41;;;;;;;2.15;0.70;;;21.60;63.10;;;;;;5032176;28;20038;-59
2022/06/02 14:48:30;;;;;;;1.55;0.90;;;21.20;63.70;;;;;;5032903;28;20045;-58
2022/06/02 14:51:21;;;;;;;0.80;0.63;;;21.10;63.30;;;;;;5032293;28;20511;-53
2022/06/02 14:54:12;;;;;;;1.83;0.82;;;21.30;63.80;;;;;;5031995;28;20036;-54